createdAt,value
2018-01-27T00:00:57.838Z,9.74
2018-01-27T00:01:57.855Z,9.68
2018-01-27T00:02:57.585Z,9.66
2018-01-27T00:03:57.625Z,9.56
2018-01-27T00:04:57.756Z,9.69
2018-01-27T00:05:57.607Z,9.64
2018-01-27T00:06:57.330Z,9.66
2018-01-27T00:07:57.615Z,9.68
2018-01-27T00:08:57.640Z,9.65
2018-01-27T00:09:57.676Z,9.65
2018-01-27T00:10:57.702Z,9.68
2018-01-27T00:11:57.673Z,9.58
2018-01-27T00:12:58.038Z,9.65
2018-01-27T00:13:57.744Z,9.72
2018-01-27T00:14:57.748Z,9.58
2018-01-27T00:15:57.727Z,9.55
2018-01-27T00:16:58.063Z,9.61
2018-01-27T00:17:58.069Z,9.55
2018-01-27T00:18:57.829Z,9.58
2018-01-27T00:19:58.181Z,9.59
2018-01-27T00:20:57.526Z,9.56
2018-01-27T00:21:57.573Z,9.56
2018-01-27T00:22:58.156Z,9.61
2018-01-27T00:23:57.867Z,9.59
2018-01-27T00:24:57.605Z,9.58
2018-01-27T00:25:58.186Z,9.62
2018-01-27T00:26:58.235Z,9.58
2018-01-27T00:27:58.238Z,9.59
2018-01-27T00:28:57.660Z,9.58
2018-01-27T00:29:58.007Z,9.62
2018-01-27T00:30:58.221Z,9.62
2018-01-27T00:31:58.309Z,9.64
2018-01-27T00:32:58.295Z,9.59
2018-01-27T00:33:58.273Z,9.55
2018-01-27T00:34:57.995Z,9.61
2018-01-27T00:35:58.049Z,9.51
2018-01-27T00:36:58.349Z,9.61
2018-01-27T00:37:58.078Z,9.56
2018-01-27T00:38:58.100Z,9.61
2018-01-27T00:39:58.127Z,9.61
2018-01-27T00:40:58.087Z,9.55
2018-01-27T00:41:58.133Z,9.62
2018-01-27T00:42:58.397Z,9.61
2018-01-27T00:43:58.132Z,9.58
2018-01-27T00:44:58.280Z,9.55
2018-01-27T00:45:57.923Z,9.54
2018-01-27T00:46:57.936Z,9.59
2018-01-27T00:47:58.222Z,9.54
2018-01-27T00:48:58.233Z,9.55
2018-01-27T00:49:58.275Z,9.55
2018-01-27T00:50:58.540Z,9.51
2018-01-27T00:51:58.557Z,9.51
2018-01-27T00:52:58.301Z,9.58
2018-01-27T00:53:58.261Z,9.55
2018-01-27T00:54:58.337Z,9.59
2018-01-27T00:55:58.612Z,9.56
2018-01-27T00:56:58.314Z,9.64
2018-01-27T00:57:58.057Z,9.54
2018-01-27T00:58:58.348Z,9.58
2018-01-27T00:59:58.395Z,9.62
2018-01-27T01:00:58.122Z,9.56
2018-01-27T01:01:58.383Z,9.61
2018-01-27T01:02:58.430Z,9.59
2018-01-27T01:03:58.453Z,9.59
2018-01-27T01:04:58.488Z,9.54
2018-01-27T01:05:58.491Z,9.5
2018-01-27T01:06:58.477Z,9.61
2018-01-27T01:07:58.497Z,9.59
2018-01-27T01:08:58.786Z,9.62
2018-01-27T01:09:58.552Z,9.59
2018-01-27T01:10:58.821Z,9.62
2018-01-27T01:11:58.266Z,9.62
2018-01-27T01:12:58.850Z,9.55
2018-01-27T01:13:58.283Z,9.59
2018-01-27T01:14:58.564Z,9.62
2018-01-27T01:15:58.622Z,9.59
2018-01-27T01:16:58.334Z,9.56
2018-01-27T01:17:58.338Z,9.56
2018-01-27T01:18:58.930Z,9.55
2018-01-27T01:19:58.665Z,9.56
2018-01-27T01:20:58.393Z,9.58
2018-01-27T01:21:58.695Z,9.59
2018-01-27T01:22:58.698Z,9.62
2018-01-27T01:23:58.711Z,9.58
2018-01-27T01:24:58.415Z,9.56
2018-01-27T01:25:59.026Z,9.58
2018-01-27T01:26:58.759Z,9.61
2018-01-27T01:27:59.064Z,9.58
2018-01-27T01:28:58.817Z,9.64
2018-01-27T01:29:58.506Z,9.56
2018-01-27T01:30:59.071Z,9.59
2018-01-27T01:31:59.107Z,9.58
2018-01-27T01:32:58.839Z,9.55
2018-01-27T01:33:58.560Z,9.62
2018-01-27T01:34:58.574Z,9.62
2018-01-27T01:35:58.881Z,9.62
2018-01-27T01:36:59.182Z,9.51
2018-01-27T01:37:58.912Z,9.56
2018-01-27T01:38:58.662Z,9.58
2018-01-27T01:39:59.183Z,9.61
2018-01-27T01:40:59.378Z,9.55
2018-01-27T01:41:58.978Z,9.59
2018-01-27T01:42:59.293Z,9.59
2018-01-27T01:43:58.990Z,9.59
2018-01-27T01:44:58.716Z,9.56
2018-01-27T01:45:58.729Z,9.59
2018-01-27T01:46:58.754Z,9.61
2018-01-27T01:47:58.744Z,9.61
2018-01-27T01:48:59.052Z,9.62
2018-01-27T01:49:59.112Z,9.56
2018-01-27T01:50:58.848Z,9.54
2018-01-27T01:51:59.092Z,9.59
2018-01-27T01:52:59.409Z,9.56
2018-01-27T01:53:59.140Z,9.56
2018-01-27T01:54:59.112Z,9.62
2018-01-27T01:55:59.142Z,9.58
2018-01-27T01:56:59.178Z,9.56
2018-01-27T01:57:59.478Z,9.56
2018-01-27T01:58:59.199Z,9.55
2018-01-27T01:59:59.494Z,9.58
2018-01-27T02:00:59.262Z,9.62
2018-01-27T02:01:59.273Z,9.54
2018-01-27T02:02:59.255Z,9.56
2018-01-27T02:03:58.991Z,9.54
2018-01-27T02:04:59.573Z,9.59
2018-01-27T02:05:59.348Z,9.54
2018-01-27T02:06:59.053Z,9.48
2018-01-27T02:07:59.034Z,9.62
2018-01-27T02:08:59.663Z,9.47
2018-01-27T02:09:59.159Z,9.46
2018-01-27T02:10:59.451Z,9.55
2018-01-27T02:11:59.392Z,9.46
2018-01-27T02:12:59.401Z,9.44
2018-01-27T02:13:59.094Z,9.48
2018-01-27T02:14:59.422Z,9.51
2018-01-27T02:15:59.811Z,9.47
2018-01-27T02:16:59.647Z,9.51
2018-01-27T02:17:59.748Z,9.46
2018-01-27T02:18:59.489Z,9.43
2018-01-27T02:19:59.487Z,9.51
2018-01-27T02:20:59.504Z,9.43
2018-01-27T02:21:59.231Z,9.47
2018-01-27T02:22:59.501Z,9.51
2018-01-27T02:23:59.568Z,9.44
2018-01-27T02:24:59.278Z,9.5
2018-01-27T02:25:59.693Z,9.47
2018-01-27T02:26:59.577Z,9.46
2018-01-27T02:27:59.604Z,9.47
2018-01-27T02:28:59.942Z,9.41
2018-01-27T02:29:59.341Z,9.43
2018-01-27T02:30:59.344Z,9.47
2018-01-27T02:31:59.952Z,9.46
2018-01-27T02:32:59.690Z,9.44
2018-01-27T02:33:59.418Z,9.47
2018-01-27T02:34:59.963Z,9.4
2018-01-27T02:35:59.439Z,9.44
2018-01-27T02:37:00.010Z,9.4
2018-01-27T02:38:00.067Z,9.44
2018-01-27T02:38:59.474Z,9.48
2018-01-27T02:40:00.094Z,9.44
2018-01-27T02:41:00.194Z,9.4
2018-01-27T02:41:59.797Z,9.44
2018-01-27T02:42:59.787Z,9.41
2018-01-27T02:44:00.154Z,9.44
2018-01-27T02:45:00.162Z,9.4
2018-01-27T02:46:00.108Z,9.44
2018-01-27T02:46:59.868Z,9.43
2018-01-27T02:47:59.890Z,9.46
2018-01-27T02:48:59.904Z,9.44
2018-01-27T02:49:59.902Z,9.47
2018-01-27T02:51:00.183Z,9.46
2018-01-27T02:52:00.226Z,9.46
2018-01-27T02:53:00.212Z,9.41
2018-01-27T02:54:00.251Z,9.44
2018-01-27T02:55:00.293Z,9.44
2018-01-27T02:56:00.317Z,9.43
2018-01-27T02:57:00.380Z,9.51
2018-01-27T02:57:59.997Z,9.4
2018-01-27T02:59:00.053Z,9.44
2018-01-27T03:00:00.296Z,9.44
2018-01-27T03:00:59.758Z,9.47
2018-01-27T03:02:00.086Z,9.47
2018-01-27T03:02:59.809Z,9.43
2018-01-27T03:04:00.104Z,9.46
2018-01-27T03:05:00.146Z,9.47
2018-01-27T03:06:00.128Z,9.47
2018-01-27T03:07:00.743Z,9.46
2018-01-27T03:07:59.858Z,9.44
2018-01-27T03:09:00.171Z,9.43
2018-01-27T03:10:00.174Z,9.44
2018-01-27T03:10:59.921Z,9.39
2018-01-27T03:12:00.537Z,9.43
2018-01-27T03:13:00.549Z,9.48
2018-01-27T03:14:00.262Z,9.41
2018-01-27T03:15:00.577Z,9.36
2018-01-27T03:16:00.278Z,9.41
2018-01-27T03:17:00.251Z,9.39
2018-01-27T03:18:00.314Z,9.39
2018-01-27T03:19:00.278Z,9.43
2018-01-27T03:20:00.581Z,9.37
2018-01-27T03:21:00.077Z,9.4
2018-01-27T03:22:00.355Z,9.4
2018-01-27T03:23:00.619Z,9.34
2018-01-27T03:24:00.097Z,9.34
2018-01-27T03:25:00.105Z,9.4
2018-01-27T03:26:00.134Z,9.34
2018-01-27T03:27:00.684Z,9.39
2018-01-27T03:28:00.423Z,9.37
2018-01-27T03:29:00.449Z,9.39
2018-01-27T03:30:00.818Z,9.39
2018-01-27T03:31:00.481Z,9.34
2018-01-27T03:32:00.806Z,9.32
2018-01-27T03:33:00.530Z,9.4
2018-01-27T03:34:00.813Z,9.34
2018-01-27T03:35:00.541Z,9.41
2018-01-27T03:36:00.581Z,9.32
2018-01-27T03:37:00.568Z,9.34
2018-01-27T03:38:00.588Z,9.34
2018-01-27T03:39:00.565Z,9.34
2018-01-27T03:40:00.323Z,9.28
2018-01-27T03:41:00.332Z,9.4
2018-01-27T03:42:00.654Z,9.29
2018-01-27T03:43:00.888Z,9.34
2018-01-27T03:44:00.689Z,9.39
2018-01-27T03:45:00.978Z,9.37
2018-01-27T03:46:00.392Z,9.37
2018-01-27T03:47:00.386Z,9.34
2018-01-27T03:48:00.726Z,9.31
2018-01-27T03:49:00.445Z,9.34
2018-01-27T03:50:00.457Z,9.22
2018-01-27T03:51:00.491Z,9.31
2018-01-27T03:52:01.062Z,9.34
2018-01-27T03:53:00.467Z,9.31
2018-01-27T03:54:00.856Z,9.25
2018-01-27T03:55:00.533Z,9.29
2018-01-27T03:56:00.827Z,9.29
2018-01-27T03:57:01.134Z,9.25
2018-01-27T03:58:00.594Z,9.22
2018-01-27T03:59:00.845Z,9.25
2018-01-27T04:00:01.172Z,9.31
2018-01-27T04:01:00.922Z,9.26
2018-01-27T04:02:00.880Z,9.28
2018-01-27T04:03:00.916Z,9.19
2018-01-27T04:04:00.963Z,9.25
2018-01-27T04:05:00.964Z,9.28
2018-01-27T04:06:01.280Z,9.16
2018-01-27T04:07:01.097Z,9.19
2018-01-27T04:08:00.705Z,9.16
2018-01-27T04:09:00.699Z,9.08
2018-01-27T04:10:01.019Z,9.22
2018-01-27T04:11:00.996Z,9.18
2018-01-27T04:12:01.017Z,9.22
2018-01-27T04:13:00.795Z,9.13
2018-01-27T04:14:01.075Z,9.19
2018-01-27T04:15:01.374Z,9.16
2018-01-27T04:16:01.143Z,9.11
2018-01-27T04:17:00.840Z,9.16
2018-01-27T04:18:01.383Z,9.11
2018-01-27T04:19:01.137Z,9.16
2018-01-27T04:20:01.446Z,9.11
2018-01-27T04:21:01.145Z,9.06
2018-01-27T04:22:01.174Z,9.14
2018-01-27T04:23:01.177Z,9.18
2018-01-27T04:24:00.921Z,9.13
2018-01-27T04:25:00.912Z,9.18
2018-01-27T04:26:01.242Z,9.14
2018-01-27T04:27:01.278Z,9.13
2018-01-27T04:28:01.290Z,9.11
2018-01-27T04:29:01.559Z,9.11
2018-01-27T04:30:01.583Z,9.08
2018-01-27T04:31:01.564Z,9.06
2018-01-27T04:32:01.792Z,9.11
2018-01-27T04:33:01.050Z,9.08
2018-01-27T04:34:01.332Z,9.13
2018-01-27T04:35:01.346Z,9.06
2018-01-27T04:36:01.365Z,9.08
2018-01-27T04:37:01.406Z,9.1
2018-01-27T04:38:01.690Z,9.08
2018-01-27T04:39:01.382Z,9.08
2018-01-27T04:40:01.716Z,9.11
2018-01-27T04:41:01.145Z,9.08
2018-01-27T04:42:01.139Z,9.08
2018-01-27T04:43:01.442Z,9.06
2018-01-27T04:44:01.187Z,9.03
2018-01-27T04:45:01.191Z,8.97
2018-01-27T04:46:01.498Z,9.11
2018-01-27T04:47:01.579Z,9.06
2018-01-27T04:48:01.815Z,9.04
2018-01-27T04:49:01.556Z,9.1
2018-01-27T04:50:01.569Z,9.04
2018-01-27T04:51:01.571Z,9.08
2018-01-27T04:52:01.376Z,9.1
2018-01-27T04:53:01.324Z,9.04
2018-01-27T04:54:01.588Z,9.06
2018-01-27T04:55:01.658Z,9.06
2018-01-27T04:56:01.964Z,9.06
2018-01-27T04:57:01.366Z,9.06
2018-01-27T04:58:01.382Z,9.06
2018-01-27T04:59:01.649Z,9.03
2018-01-27T05:00:01.985Z,9.06
2018-01-27T05:01:02.007Z,9.08
2018-01-27T05:02:01.453Z,8.97
2018-01-27T05:03:02.048Z,9.08
2018-01-27T05:04:01.720Z,9.03
2018-01-27T05:05:02.044Z,9.04
2018-01-27T05:06:01.771Z,9.03
2018-01-27T05:07:02.039Z,9.06
2018-01-27T05:08:01.497Z,9.02
2018-01-27T05:09:01.797Z,9
2018-01-27T05:10:01.822Z,9.06
2018-01-27T05:11:01.554Z,9
2018-01-27T05:12:02.147Z,8.99
2018-01-27T05:13:01.841Z,9.06
2018-01-27T05:14:01.875Z,9.13
2018-01-27T05:15:01.899Z,9.11
2018-01-27T05:16:01.892Z,9
2018-01-27T05:17:01.946Z,9.13
2018-01-27T05:18:02.186Z,9.14
2018-01-27T05:19:01.679Z,9.06
2018-01-27T05:20:01.675Z,9
2018-01-27T05:21:01.957Z,9.04
2018-01-27T05:22:01.995Z,8.95
2018-01-27T05:23:02.006Z,9.06
2018-01-27T05:24:01.742Z,9.14
2018-01-27T05:25:02.056Z,9.08
2018-01-27T05:26:02.306Z,9.03
2018-01-27T05:27:02.029Z,8.99
2018-01-27T05:28:02.064Z,9.02
2018-01-27T05:29:02.086Z,9.06
2018-01-27T05:30:02.144Z,9.03
2018-01-27T05:31:02.126Z,9.04
2018-01-27T05:32:02.541Z,9
2018-01-27T05:33:02.433Z,9
2018-01-27T05:34:01.886Z,9.06
2018-01-27T05:35:02.509Z,9.06
2018-01-27T05:36:02.470Z,9.02
2018-01-27T05:37:02.496Z,9.02
2018-01-27T05:38:02.477Z,8.99
2018-01-27T05:39:02.481Z,9.08
2018-01-27T05:40:02.265Z,9.02
2018-01-27T05:41:02.518Z,9.03
2018-01-27T05:42:02.554Z,9.06
2018-01-27T05:43:02.539Z,9.06
2018-01-27T05:44:02.502Z,9.1
2018-01-27T05:45:02.029Z,9.04
2018-01-27T05:46:02.320Z,9.03
2018-01-27T05:47:02.073Z,9.1
2018-01-27T05:48:02.323Z,9.04
2018-01-27T05:49:02.653Z,9
2018-01-27T05:50:02.396Z,9.03
2018-01-27T05:51:02.388Z,8.99
2018-01-27T05:52:02.434Z,9.02
2018-01-27T05:53:02.702Z,9
2018-01-27T05:54:02.423Z,9.08
2018-01-27T05:55:02.473Z,9
2018-01-27T05:56:02.732Z,9.04
2018-01-27T05:57:02.758Z,9.08
2018-01-27T05:58:02.748Z,8.95
2018-01-27T05:59:02.481Z,9.06
2018-01-27T06:00:02.522Z,8.99
2018-01-27T06:01:02.321Z,9.06
2018-01-27T06:02:02.333Z,9.06
2018-01-27T06:03:02.529Z,9
2018-01-27T06:04:02.565Z,9
2018-01-27T06:05:02.908Z,9.13
2018-01-27T06:06:02.305Z,9.03
2018-01-27T06:07:02.896Z,9.03
2018-01-27T06:08:02.326Z,9.03
2018-01-27T06:09:02.611Z,9.02
2018-01-27T06:10:02.645Z,8.97
2018-01-27T06:11:02.984Z,8.99
2018-01-27T06:12:02.959Z,9.04
2018-01-27T06:13:02.854Z,9.02
2018-01-27T06:14:02.694Z,9.08
2018-01-27T06:15:02.962Z,9.02
2018-01-27T06:16:02.446Z,9.08
2018-01-27T06:17:03.002Z,9.03
2018-01-27T06:18:02.494Z,9.04
2018-01-27T06:19:02.786Z,9.04
2018-01-27T06:20:02.780Z,9
2018-01-27T06:21:02.782Z,9.02
2018-01-27T06:22:02.566Z,9
2018-01-27T06:23:03.082Z,9.06
2018-01-27T06:24:02.857Z,9.06
2018-01-27T06:25:02.557Z,8.99
2018-01-27T06:26:02.922Z,9.03
2018-01-27T06:27:03.204Z,8.94
2018-01-27T06:28:02.870Z,8.95
2018-01-27T06:29:03.159Z,9.08
2018-01-27T06:30:02.684Z,8.97
2018-01-27T06:31:02.960Z,9.1
2018-01-27T06:32:03.245Z,9.1
2018-01-27T06:33:03.278Z,8.99
2018-01-27T06:34:02.721Z,9.08
2018-01-27T06:35:03.272Z,9.04
2018-01-27T06:36:03.013Z,9.02
2018-01-27T06:37:03.298Z,9.02
2018-01-27T06:38:02.744Z,8.99
2018-01-27T06:39:03.044Z,8.95
2018-01-27T06:40:03.079Z,9.02
2018-01-27T06:41:03.318Z,8.97
2018-01-27T06:42:03.404Z,8.97
2018-01-27T06:43:03.404Z,9.02
2018-01-27T06:44:03.411Z,9.02
2018-01-27T06:45:03.128Z,9.02
2018-01-27T06:46:02.854Z,8.95
2018-01-27T06:47:03.393Z,9.03
2018-01-27T06:48:03.290Z,9.03
2018-01-27T06:49:03.482Z,8.97
2018-01-27T06:50:03.239Z,8.95
2018-01-27T06:51:02.888Z,9.03
2018-01-27T06:52:03.523Z,8.99
2018-01-27T06:53:02.911Z,8.94
2018-01-27T06:54:03.258Z,8.95
2018-01-27T06:55:03.241Z,8.99
2018-01-27T06:56:03.039Z,9.02
2018-01-27T06:57:03.666Z,9.02
2018-01-27T06:58:03.339Z,8.95
2018-01-27T06:59:03.309Z,9.04
2018-01-27T07:00:03.037Z,9.02
2018-01-27T07:01:03.622Z,9.03
2018-01-27T07:02:03.033Z,9.04
2018-01-27T07:03:03.647Z,9.03
2018-01-27T07:04:03.374Z,8.94
2018-01-27T07:05:03.364Z,8.97
2018-01-27T07:06:03.130Z,9.02
2018-01-27T07:07:03.402Z,9.02
2018-01-27T07:08:03.445Z,9.03
2018-01-27T07:09:03.411Z,9.02
2018-01-27T07:10:03.457Z,9
2018-01-27T07:11:03.163Z,8.97
2018-01-27T07:12:03.464Z,8.95
2018-01-27T07:13:03.483Z,9.03
2018-01-27T07:14:03.533Z,8.97
2018-01-27T07:15:03.831Z,9.04
2018-01-27T07:16:03.823Z,8.99
2018-01-27T07:17:03.255Z,9.03
2018-01-27T07:18:03.728Z,9.06
2018-01-27T07:19:03.551Z,9.03
2018-01-27T07:20:03.668Z,8.99
2018-01-27T07:21:03.895Z,9.04
2018-01-27T07:22:03.652Z,9.08
2018-01-27T07:23:03.595Z,8.97
2018-01-27T07:24:03.623Z,9
2018-01-27T07:25:03.655Z,8.99
2018-01-27T07:26:03.433Z,8.99
2018-01-27T07:27:04.007Z,9.03
2018-01-27T07:28:03.745Z,9.02
2018-01-27T07:29:03.987Z,8.99
2018-01-27T07:30:03.743Z,9.1
2018-01-27T07:31:03.468Z,9.06
2018-01-27T07:32:04.063Z,9
2018-01-27T07:33:03.634Z,8.95
2018-01-27T07:34:04.026Z,9
2018-01-27T07:35:04.073Z,8.97
2018-01-27T07:36:03.792Z,9.1
2018-01-27T07:37:03.851Z,9.04
2018-01-27T07:38:03.881Z,9
2018-01-27T07:39:04.136Z,9.06
2018-01-27T07:40:03.574Z,9.04
2018-01-27T07:41:04.153Z,9.06
2018-01-27T07:42:03.958Z,9.04
2018-01-27T07:43:04.189Z,9
2018-01-27T07:44:03.612Z,9.08
2018-01-27T07:45:03.957Z,9.08
2018-01-27T07:46:04.345Z,9.06
2018-01-27T07:47:03.683Z,9.11
2018-01-27T07:48:03.987Z,9.08
2018-01-27T07:49:04.290Z,9.08
2018-01-27T07:50:03.700Z,9.1
2018-01-27T07:51:04.004Z,9.1
2018-01-27T07:52:04.031Z,9.06
2018-01-27T07:53:03.752Z,9.1
2018-01-27T07:54:04.427Z,9.08
2018-01-27T07:55:03.784Z,9.14
2018-01-27T07:56:04.074Z,9.13
2018-01-27T07:57:03.783Z,9.13
2018-01-27T07:58:03.793Z,9.14
2018-01-27T07:59:04.107Z,9.1
2018-01-27T08:00:04.160Z,9.11
2018-01-27T08:01:04.107Z,9.16
2018-01-27T08:02:04.134Z,9.19
2018-01-27T08:03:04.149Z,9.16
2018-01-27T08:04:04.164Z,9.14
2018-01-27T08:05:03.924Z,9.18
2018-01-27T08:06:04.533Z,9.16
2018-01-27T08:07:04.214Z,9.18
2018-01-27T08:08:03.949Z,9.18
2018-01-27T08:09:03.948Z,9.23
2018-01-27T08:10:04.255Z,9.14
2018-01-27T08:11:04.598Z,9.19
2018-01-27T08:12:04.570Z,9.26
2018-01-27T08:13:04.007Z,9.26
2018-01-27T08:14:04.320Z,9.22
2018-01-27T08:15:04.303Z,9.21
2018-01-27T08:16:04.622Z,9.23
2018-01-27T08:17:04.070Z,9.29
2018-01-27T08:18:04.652Z,9.29
2018-01-27T08:19:04.360Z,9.28
2018-01-27T08:20:04.418Z,9.25
2018-01-27T08:21:04.700Z,9.29
2018-01-27T08:22:04.134Z,9.25
2018-01-27T08:23:04.136Z,9.36
2018-01-27T08:24:04.804Z,9.34
2018-01-27T08:25:04.185Z,9.37
2018-01-27T08:26:04.188Z,9.32
2018-01-27T08:27:04.210Z,9.34
2018-01-27T08:28:04.476Z,9.36
2018-01-27T08:29:04.815Z,9.4
2018-01-27T08:30:04.828Z,9.39
2018-01-27T08:31:04.581Z,9.43
2018-01-27T08:32:04.276Z,9.41
2018-01-27T08:33:04.562Z,9.44
2018-01-27T08:34:04.557Z,9.46
2018-01-27T08:35:04.603Z,9.48
2018-01-27T08:36:04.925Z,9.41
2018-01-27T08:37:04.892Z,9.46
2018-01-27T08:38:04.360Z,9.51
2018-01-27T08:39:04.657Z,9.47
2018-01-27T08:40:05.001Z,9.54
2018-01-27T08:41:04.716Z,9.54
2018-01-27T08:42:04.996Z,9.5
2018-01-27T08:43:04.421Z,9.59
2018-01-27T08:44:05.047Z,9.61
2018-01-27T08:45:04.743Z,9.58
2018-01-27T08:46:04.776Z,9.62
2018-01-27T08:47:04.735Z,9.72
2018-01-27T08:48:04.803Z,9.68
2018-01-27T08:49:04.490Z,9.68
2018-01-27T08:50:04.840Z,9.68
2018-01-27T08:51:05.073Z,9.69
2018-01-27T08:52:04.866Z,9.74
2018-01-27T08:53:05.141Z,9.69
2018-01-27T08:54:04.602Z,9.76
2018-01-27T08:55:04.889Z,9.66
2018-01-27T08:56:05.203Z,9.73
2018-01-27T08:57:04.904Z,9.74
2018-01-27T08:58:04.921Z,9.79
2018-01-27T08:59:04.920Z,9.77
2018-01-27T09:00:04.962Z,9.74
2018-01-27T09:01:04.993Z,9.86
2018-01-27T09:02:05.319Z,9.87
2018-01-27T09:03:05.277Z,9.83
2018-01-27T09:04:05.004Z,9.82
2018-01-27T09:05:05.032Z,9.82
2018-01-27T09:06:05.352Z,9.83
2018-01-27T09:07:04.763Z,9.89
2018-01-27T09:08:05.170Z,9.92
2018-01-27T09:09:05.040Z,9.97
2018-01-27T09:10:05.104Z,9.89
2018-01-27T09:11:05.064Z,9.95
2018-01-27T09:12:05.446Z,9.92
2018-01-27T09:13:05.375Z,9.89
2018-01-27T09:14:05.206Z,9.99
2018-01-27T09:15:05.474Z,9.99
2018-01-27T09:16:05.423Z,9.99
2018-01-27T09:17:05.179Z,10.07
2018-01-27T09:18:05.452Z,10.02
2018-01-27T09:19:04.954Z,10.17
2018-01-27T09:20:04.954Z,10.13
2018-01-27T09:21:05.268Z,10.1
2018-01-27T09:22:05.262Z,10.09
2018-01-27T09:23:05.301Z,10.09
2018-01-27T09:24:05.208Z,10.1
2018-01-27T09:25:05.024Z,10.13
2018-01-27T09:26:05.297Z,10.1
2018-01-27T09:27:05.009Z,10.2
2018-01-27T09:28:05.048Z,10.26
2018-01-27T09:29:05.037Z,10.19
2018-01-27T09:30:05.364Z,10.25
2018-01-27T09:31:05.623Z,10.28
2018-01-27T09:32:05.401Z,10.3
2018-01-27T09:33:05.382Z,10.25
2018-01-27T09:34:05.723Z,10.25
2018-01-27T09:35:05.686Z,10.33
2018-01-27T09:36:05.729Z,10.25
2018-01-27T09:37:05.424Z,10.3
2018-01-27T09:38:05.242Z,10.26
2018-01-27T09:39:05.533Z,10.31
2018-01-27T09:40:05.643Z,10.38
2018-01-27T09:41:05.526Z,10.41
2018-01-27T09:42:05.828Z,10.28
2018-01-27T09:43:05.515Z,10.37
2018-01-27T09:44:05.832Z,10.37
2018-01-27T09:45:05.545Z,10.41
2018-01-27T09:46:05.883Z,10.37
2018-01-27T09:47:05.936Z,10.44
2018-01-27T09:48:05.343Z,10.4
2018-01-27T09:49:05.604Z,10.38
2018-01-27T09:50:05.899Z,10.44
2018-01-27T09:51:05.652Z,10.48
2018-01-27T09:52:05.426Z,10.42
2018-01-27T09:53:05.723Z,10.42
2018-01-27T09:54:05.806Z,10.42
2018-01-27T09:55:05.983Z,10.42
2018-01-27T09:56:06.050Z,10.42
2018-01-27T09:57:05.997Z,10.41
2018-01-27T09:58:05.482Z,10.41
2018-01-27T09:59:06.069Z,10.42
2018-01-27T10:00:05.893Z,10.46
2018-01-27T10:01:05.772Z,10.42
2018-01-27T10:02:05.918Z,10.4
2018-01-27T10:03:06.097Z,10.41
2018-01-27T10:04:05.863Z,10.46
2018-01-27T10:05:05.548Z,10.49
2018-01-27T10:06:05.858Z,10.49
2018-01-27T10:07:06.172Z,10.48
2018-01-27T10:08:05.659Z,10.48
2018-01-27T10:09:06.233Z,10.56
2018-01-27T10:10:05.935Z,10.57
2018-01-27T10:11:06.273Z,10.54
2018-01-27T10:12:06.223Z,10.51
2018-01-27T10:13:06.261Z,10.51
2018-01-27T10:14:06.273Z,10.59
2018-01-27T10:15:05.990Z,10.6
2018-01-27T10:16:06.155Z,10.54
2018-01-27T10:17:06.012Z,10.59
2018-01-27T10:18:06.043Z,10.61
2018-01-27T10:19:06.038Z,10.57
2018-01-27T10:20:06.050Z,10.64
2018-01-27T10:21:06.094Z,10.63
2018-01-27T10:22:06.108Z,10.67
2018-01-27T10:23:06.408Z,10.63
2018-01-27T10:24:06.474Z,10.63
2018-01-27T10:25:06.187Z,10.63
2018-01-27T10:26:06.136Z,10.61
2018-01-27T10:27:06.281Z,10.68
2018-01-27T10:28:06.200Z,10.67
2018-01-27T10:29:06.203Z,10.75
2018-01-27T10:30:06.308Z,10.76
2018-01-27T10:31:06.519Z,10.75
2018-01-27T10:32:06.288Z,10.75
2018-01-27T10:33:06.583Z,10.81
2018-01-27T10:34:06.285Z,10.79
2018-01-27T10:35:06.342Z,10.74
2018-01-27T10:36:06.595Z,10.74
2018-01-27T10:37:06.330Z,10.78
2018-01-27T10:38:06.618Z,10.82
2018-01-27T10:39:06.362Z,10.81
2018-01-27T10:40:06.705Z,10.86
2018-01-27T10:41:06.120Z,10.76
2018-01-27T10:42:06.150Z,10.82
2018-01-27T10:43:06.418Z,10.76
2018-01-27T10:44:06.431Z,10.82
2018-01-27T10:45:06.440Z,10.79
2018-01-27T10:46:06.174Z,10.81
2018-01-27T10:47:06.759Z,10.81
2018-01-27T10:48:06.504Z,10.86
2018-01-27T10:49:06.523Z,10.79
2018-01-27T10:50:06.590Z,10.79
2018-01-27T10:51:06.226Z,10.81
2018-01-27T10:52:06.586Z,10.81
2018-01-27T10:53:06.819Z,10.9
2018-01-27T10:54:06.269Z,10.87
2018-01-27T10:55:06.568Z,10.81
2018-01-27T10:56:06.631Z,10.89
2018-01-27T10:57:06.622Z,10.82
2018-01-27T10:58:06.973Z,10.89
2018-01-27T10:59:06.649Z,10.93
2018-01-27T11:00:06.411Z,10.9
2018-01-27T11:01:06.708Z,10.87
2018-01-27T11:02:06.711Z,10.92
2018-01-27T11:03:06.976Z,10.93
2018-01-27T11:04:07.011Z,10.96
2018-01-27T11:05:06.784Z,10.97
2018-01-27T11:06:07.073Z,10.94
2018-01-27T11:07:06.517Z,10.97
2018-01-27T11:08:06.807Z,10.96
2018-01-27T11:09:07.084Z,11
2018-01-27T11:10:07.110Z,10.99
2018-01-27T11:11:07.234Z,11.05
2018-01-27T11:12:06.830Z,11.05
2018-01-27T11:13:07.175Z,11.08
2018-01-27T11:14:07.159Z,11.1
2018-01-27T11:15:07.146Z,11.05
2018-01-27T11:16:06.904Z,11.11
2018-01-27T11:17:06.927Z,11.11
2018-01-27T11:18:06.679Z,11.12
2018-01-27T11:19:06.939Z,11.12
2018-01-27T11:20:07.259Z,11.18
2018-01-27T11:21:07.292Z,11.15
2018-01-27T11:22:07.279Z,11.17
2018-01-27T11:23:07.013Z,11.19
2018-01-27T11:24:06.736Z,11.19
2018-01-27T11:25:07.033Z,11.14
2018-01-27T11:26:07.308Z,11.23
2018-01-27T11:27:06.804Z,11.23
2018-01-27T11:28:06.812Z,11.22
2018-01-27T11:29:07.432Z,11.23
2018-01-27T11:30:07.118Z,11.26
2018-01-27T11:31:07.094Z,11.17
2018-01-27T11:32:07.461Z,11.19
2018-01-27T11:33:07.480Z,11.22
2018-01-27T11:34:07.475Z,11.19
2018-01-27T11:35:07.175Z,11.25
2018-01-27T11:36:07.491Z,11.29
2018-01-27T11:37:06.944Z,11.22
2018-01-27T11:38:07.239Z,11.26
2018-01-27T11:39:07.236Z,11.33
2018-01-27T11:40:07.306Z,11.29
2018-01-27T11:41:07.320Z,11.25
2018-01-27T11:42:07.549Z,11.33
2018-01-27T11:43:07.596Z,11.25
2018-01-27T11:44:07.050Z,11.32
2018-01-27T11:45:07.641Z,11.37
2018-01-27T11:46:07.082Z,11.36
2018-01-27T11:47:07.106Z,11.4
2018-01-27T11:48:07.925Z,11.35
2018-01-27T11:49:07.420Z,11.37
2018-01-27T11:50:07.751Z,11.37
2018-01-27T11:51:07.573Z,11.4
2018-01-27T11:52:07.734Z,11.4
2018-01-27T11:53:07.578Z,11.37
2018-01-27T11:54:07.461Z,11.33
2018-01-27T11:55:07.748Z,11.48
2018-01-27T11:56:07.533Z,11.45
2018-01-27T11:57:07.824Z,11.47
2018-01-27T11:58:07.549Z,11.44
2018-01-27T11:59:07.565Z,11.51
2018-01-27T12:00:07.589Z,11.47
2018-01-27T12:01:07.582Z,11.47
2018-01-27T12:02:07.320Z,11.47
2018-01-27T12:03:07.867Z,11.55
2018-01-27T12:04:07.347Z,11.48
2018-01-27T12:05:07.657Z,11.51
2018-01-27T12:06:07.962Z,11.54
2018-01-27T12:07:07.396Z,11.47
2018-01-27T12:08:07.718Z,11.45
2018-01-27T12:09:07.744Z,11.48
2018-01-27T12:10:08.011Z,11.5
2018-01-27T12:11:07.713Z,11.45
2018-01-27T12:12:07.482Z,11.44
2018-01-27T12:13:07.516Z,11.47
2018-01-27T12:14:07.757Z,11.47
2018-01-27T12:15:07.833Z,11.51
2018-01-27T12:16:07.510Z,11.5
2018-01-27T12:17:07.802Z,11.52
2018-01-27T12:18:07.595Z,11.52
2018-01-27T12:19:07.879Z,11.44
2018-01-27T12:20:07.917Z,11.47
2018-01-27T12:21:07.869Z,11.45
2018-01-27T12:22:07.628Z,11.45
2018-01-27T12:23:07.962Z,11.43
2018-01-27T12:24:07.946Z,11.54
2018-01-27T12:25:07.663Z,11.55
2018-01-27T12:26:08.262Z,11.54
2018-01-27T12:27:07.711Z,11.55
2018-01-27T12:28:08.006Z,11.48
2018-01-27T12:29:07.766Z,11.54
2018-01-27T12:30:07.725Z,11.52
2018-01-27T12:31:07.792Z,11.55
2018-01-27T12:32:08.382Z,11.63
2018-01-27T12:33:08.058Z,11.62
2018-01-27T12:34:08.426Z,11.6
2018-01-27T12:35:08.088Z,11.57
2018-01-27T12:36:07.848Z,11.62
2018-01-27T12:37:08.165Z,11.59
2018-01-27T12:38:08.464Z,11.68
2018-01-27T12:39:08.194Z,11.69
2018-01-27T12:40:08.201Z,11.73
2018-01-27T12:41:08.241Z,11.7
2018-01-27T12:42:08.274Z,11.7
2018-01-27T12:43:08.237Z,11.7
2018-01-27T12:44:09.123Z,11.66
2018-01-27T12:45:08.236Z,11.75
2018-01-27T12:46:08.314Z,11.73
2018-01-27T12:47:08.385Z,11.75
2018-01-27T12:48:08.564Z,11.73
2018-01-27T12:49:08.314Z,11.77
2018-01-27T12:50:08.322Z,11.75
2018-01-27T12:51:08.361Z,11.78
2018-01-27T12:52:08.375Z,11.73
2018-01-27T12:53:08.672Z,11.78
2018-01-27T12:54:08.418Z,11.77
2018-01-27T12:55:08.763Z,11.81
2018-01-27T12:56:08.143Z,11.8
2018-01-27T12:57:08.224Z,11.75
2018-01-27T12:58:08.471Z,11.86
2018-01-27T12:59:08.781Z,11.73
2018-01-27T13:00:08.537Z,11.68
2018-01-27T13:01:08.227Z,11.86
2018-01-27T13:02:08.583Z,11.83
2018-01-27T13:03:08.565Z,11.87
2018-01-27T13:04:08.594Z,11.87
2018-01-27T13:05:08.546Z,11.83
2018-01-27T13:06:08.341Z,11.87
2018-01-27T13:07:08.932Z,11.87
2018-01-27T13:08:08.355Z,11.99
2018-01-27T13:09:08.676Z,11.87
2018-01-27T13:10:08.432Z,11.97
2018-01-27T13:11:08.997Z,11.88
2018-01-27T13:12:08.659Z,11.86
2018-01-27T13:13:08.717Z,11.87
2018-01-27T13:14:08.704Z,11.88
2018-01-27T13:15:08.424Z,11.94